Williamsburg, Virginia
Current Conditions -  °F | °C
As of 3:35 PM on Monday 22 Dec 2014 (Local Time) from KJGG Reporting Station
Overcast Overcast  
Wind Chill: 41°   Ceiling: 500
Heat Index: 45°   Visibility: 1.7mi
Dew Point: 45°   Wind: 7mph
Humidity: 100%   Direction: 60°ENE
Pressure: 30.05"   Gusts: NA
Location:  37.28°N, 76.71°W
Report Text: KJGG 222035Z AUTO 06006KT 1 3/4SM OVC005 07/07 A3005 RMK AO1 VIS 1V2 1/2
Loading
Personal Weather Stations






























Interactive Weather Map New forecast layout! Learn more

10-Day Weather Forecast

Advertisements
Track Severe Weather on mobile